Alley Springs, Missouri
Current Conditions -  °F | °C
As of 6:53 PM on Tuesday 27 Jan 2015 (Local Time) from KUNO Reporting Station
Clear Clear  
Wind Chill:   Ceiling: Unl
Heat Index:   Visibility: 10mi
Dew Point: -3°   Wind: 3mph
Humidity: 53%   Direction: 110°ESE
Pressure: 30.16"   Gusts: NA
Location:  37.1833°N, 91.4819°W
Report Text: KUNO 280053Z AUTO 11003KT 10SM CLR 06/M03 A3016 RMK AO2 SLP216 T00611028
Loading
Personal Weather Stations






























Interactive Weather Map New forecast layout! Learn more

10-Day Weather Forecast

Advertisements
Track Severe Weather on mobile